Etusivu
METAR-TAF:

METAR-TAF

Lentoasemat :

David Wayne Hooks Memorial Airport

Houston / Tomball, Texas, Yhdysvallat

Leveyspiiri: 30-04-03N, Pituuspiiri: 095-33-22W, korkeus merenpinnasta: 46 m

Tämänhetkinen sää

Tämä raportti tehtiin 28 minuuttia sitten, kello 04.28 UTC
Tuuli 4 kn idästä/kaakosta
Lämpötila 22°C
Kosteus 94%
Ilmanpaine 1016 hPa
Näkyvyys: 2.8 km
Pilvistä 200 ft:n korkeudessa
utua

METAR: KDWH 070428Z AUTO 11004KT 1 3/4SM BR OVC002 22/21 A3000 RMK AO2 T02170206

Aika: 23:56 (04:56 UTC)


TAF: puuttuu

Säähavainnot ja -ennusteet yli 4000 lentoasemalta (METAR- ja TAF-raportit).

Käytössä olevat sääasemat on merkitty karttaan keltaisilla ja punaisilla pisteillä.

Aseta hiiri pisteen päälle nähdäksesi sääaseman nimen.

Klikkaa sitten nähdäksesi säähavainnot ja -ennusteet.

Kartan vaihtaminen: klikkaa mustalla rastilla varustettuja vihreitä pisteitä, niin voit zoomata sisään; viivalla varustettua vihreää pistettä, niin voit zoomata ulos tai vihreitä nuolia, niin pääset viereisille kartoille.


METAR-TAF: